sensor_id;sensor_type;location;lat;lon;timestamp;temperature;humidity
21682;DHT22;11002;48.256;10.084;2023-04-01T00:02:25;7.60;72.20
21682;DHT22;11002;48.256;10.084;2023-04-01T00:04:52;7.50;72.70
21682;DHT22;11002;48.256;10.084;2023-04-01T00:07:20;7.60;73.40
21682;DHT22;11002;48.256;10.084;2023-04-01T00:09:48;7.60;74.40
21682;DHT22;11002;48.256;10.084;2023-04-01T00:12:15;7.70;75.90
21682;DHT22;11002;48.256;10.084;2023-04-01T00:14:43;7.60;75.50
21682;DHT22;11002;48.256;10.084;2023-04-01T00:17:12;7.70;73.60
21682;DHT22;11002;48.256;10.084;2023-04-01T00:19:39;7.80;72.30
21682;DHT22;11002;48.256;10.084;2023-04-01T00:22:06;7.50;72.10
21682;DHT22;11002;48.256;10.084;2023-04-01T00:24:37;7.50;71.70
21682;DHT22;11002;48.256;10.084;2023-04-01T00:27:04;7.50;71.80
21682;DHT22;11002;48.256;10.084;2023-04-01T00:29:33;7.60;72.30
21682;DHT22;11002;48.256;10.084;2023-04-01T00:32:00;7.50;72.30
21682;DHT22;11002;48.256;10.084;2023-04-01T00:34:29;7.50;72.90
21682;DHT22;11002;48.256;10.084;2023-04-01T00:36:56;7.40;73.20
21682;DHT22;11002;48.256;10.084;2023-04-01T00:39:24;7.40;73.80
21682;DHT22;11002;48.256;10.084;2023-04-01T00:41:52;7.50;74.70
21682;DHT22;11002;48.256;10.084;2023-04-01T00:44:22;7.40;74.90
21682;DHT22;11002;48.256;10.084;2023-04-01T00:46:50;7.20;74.90
21682;DHT22;11002;48.256;10.084;2023-04-01T00:49:20;7.30;75.00
21682;DHT22;11002;48.256;10.084;2023-04-01T00:51:53;7.20;74.90
21682;DHT22;11002;48.256;10.084;2023-04-01T00:54:24;7.30;75.20
21682;DHT22;11002;48.256;10.084;2023-04-01T00:56:55;7.20;75.00
21682;DHT22;11002;48.256;10.084;2023-04-01T00:59:25;7.20;75.00
21682;DHT22;11002;48.256;10.084;2023-04-01T01:01:53;7.40;74.80
21682;DHT22;11002;48.256;10.084;2023-04-01T01:04:23;7.10;75.40
21682;DHT22;11002;48.256;10.084;2023-04-01T01:06:59;7.30;75.50
21682;DHT22;11002;48.256;10.084;2023-04-01T01:09:34;7.10;75.40
21682;DHT22;11002;48.256;10.084;2023-04-01T01:12:09;7.10;75.20
21682;DHT22;11002;48.256;10.084;2023-04-01T01:14:47;7.40;74.60
21682;DHT22;11002;48.256;10.084;2023-04-01T01:17:25;7.10;74.30
21682;DHT22;11002;48.256;10.084;2023-04-01T01:20:20;7.10;74.40
21682;DHT22;11002;48.256;10.084;2023-04-01T01:23:15;7.10;74.20
21682;DHT22;11002;48.256;10.084;2023-04-01T01:25:57;7.10;74.20
21682;DHT22;11002;48.256;10.084;2023-04-01T01:28:35;7.20;74.30
21682;DHT22;11002;48.256;10.084;2023-04-01T01:31:12;7.00;74.40
21682;DHT22;11002;48.256;10.084;2023-04-01T01:34:01;7.00;74.00
21682;DHT22;11002;48.256;10.084;2023-04-01T01:36:35;7.00;73.70
21682;DHT22;11002;48.256;10.084;2023-04-01T01:39:09;7.10;73.70
21682;DHT22;11002;48.256;10.084;2023-04-01T01:41:38;6.90;73.50
21682;DHT22;11002;48.256;10.084;2023-04-01T01:44:08;7.00;74.00
21682;DHT22;11002;48.256;10.084;2023-04-01T01:46:39;7.00;73.60
21682;DHT22;11002;48.256;10.084;2023-04-01T01:49:10;6.90;73.10
21682;DHT22;11002;48.256;10.084;2023-04-01T01:51:40;7.00;73.30
21682;DHT22;11002;48.256;10.084;2023-04-01T01:54:12;6.90;73.00
21682;DHT22;11002;48.256;10.084;2023-04-01T01:56:41;6.90;72.90
21682;DHT22;11002;48.256;10.084;2023-04-01T01:59:13;6.90;72.60
21682;DHT22;11002;48.256;10.084;2023-04-01T02:01:43;7.00;72.70
21682;DHT22;11002;48.256;10.084;2023-04-01T02:04:14;6.90;72.50
21682;DHT22;11002;48.256;10.084;2023-04-01T02:06:47;7.10;73.00
21682;DHT22;11002;48.256;10.084;2023-04-01T02:09:18;7.10;72.40
21682;DHT22;11002;48.256;10.084;2023-04-01T02:11:49;7.00;71.10
21682;DHT22;11002;48.256;10.084;2023-04-01T02:14:21;7.20;70.90
21682;DHT22;11002;48.256;10.084;2023-04-01T02:16:52;7.00;70.50
21682;DHT22;11002;48.256;10.084;2023-04-01T02:19:26;7.00;70.00
21682;DHT22;11002;48.256;10.084;2023-04-01T02:22:00;6.90;69.90
21682;DHT22;11002;48.256;10.084;2023-04-01T02:24:30;7.00;70.00
21682;DHT22;11002;48.256;10.084;2023-04-01T02:26:58;6.80;69.80
21682;DHT22;11002;48.256;10.084;2023-04-01T02:29:28;6.80;69.80
21682;DHT22;11002;48.256;10.084;2023-04-01T02:31:56;6.60;69.60
21682;DHT22;11002;48.256;10.084;2023-04-01T02:34:24;7.00;70.00
21682;DHT22;11002;48.256;10.084;2023-04-01T02:36:52;6.70;69.70
21682;DHT22;11002;48.256;10.084;2023-04-01T02:39:22;6.70;69.70
21682;DHT22;11002;48.256;10.084;2023-04-01T02:41:52;6.70;69.70
21682;DHT22;11002;48.256;10.084;2023-04-01T02:44:19;6.70;69.70
21682;DHT22;11002;48.256;10.084;2023-04-01T02:46:47;6.80;69.80
21682;DHT22;11002;48.256;10.084;2023-04-01T02:49:14;6.90;69.90
21682;DHT22;11002;48.256;10.084;2023-04-01T02:51:41;6.60;69.60
21682;DHT22;11002;48.256;10.084;2023-04-01T02:54:09;6.70;69.70
21682;DHT22;11002;48.256;10.084;2023-04-01T02:56:39;6.70;69.70
21682;DHT22;11002;48.256;10.084;2023-04-01T02:59:06;7.00;70.00
21682;DHT22;11002;48.256;10.084;2023-04-01T03:01:33;6.60;70.60
21682;DHT22;11002;48.256;10.084;2023-04-01T03:04:01;6.70;70.60
21682;DHT22;11002;48.256;10.084;2023-04-01T03:06:28;6.70;72.10
21682;DHT22;11002;48.256;10.084;2023-04-01T03:08:55;6.70;73.70
21682;DHT22;11002;48.256;10.084;2023-04-01T03:11:23;6.70;74.50
21682;DHT22;11002;48.256;10.084;2023-04-01T03:13:53;6.70;76.30
21682;DHT22;11002;48.256;10.084;2023-04-01T03:16:20;6.60;76.20
21682;DHT22;11002;48.256;10.084;2023-04-01T03:18:49;6.60;78.70
21682;DHT22;11002;48.256;10.084;2023-04-01T03:21:20;6.50;82.60
21682;DHT22;11002;48.256;10.084;2023-04-01T03:23:47;6.60;84.80
21682;DHT22;11002;48.256;10.084;2023-04-01T03:26:16;6.50;88.70
21682;DHT22;11002;48.256;10.084;2023-04-01T03:28:44;6.50;91.30
21682;DHT22;11002;48.256;10.084;2023-04-01T03:31:13;6.50;92.30
21682;DHT22;11002;48.256;10.084;2023-04-01T03:33:48;6.50;92.60
21682;DHT22;11002;48.256;10.084;2023-04-01T03:36:16;6.40;93.00
21682;DHT22;11002;48.256;10.084;2023-04-01T03:38:44;6.50;93.60
21682;DHT22;11002;48.256;10.084;2023-04-01T03:41:17;6.50;94.10
21682;DHT22;11002;48.256;10.084;2023-04-01T03:43:45;6.60;95.20
21682;DHT22;11002;48.256;10.084;2023-04-01T03:46:17;6.50;95.90
21682;DHT22;11002;48.256;10.084;2023-04-01T03:48:44;6.50;96.50
21682;DHT22;11002;48.256;10.084;2023-04-01T03:51:12;6.50;96.60
21682;DHT22;11002;48.256;10.084;2023-04-01T03:53:39;6.50;97.00
21682;DHT22;11002;48.256;10.084;2023-04-01T03:56:07;6.50;97.10
21682;DHT22;11002;48.256;10.084;2023-04-01T03:58:36;6.80;97.20
21682;DHT22;11002;48.256;10.084;2023-04-01T04:01:16;6.50;96.90
21682;DHT22;11002;48.256;10.084;2023-04-01T04:03:43;6.80;97.10
21682;DHT22;11002;48.256;10.084;2023-04-01T04:06:13;6.60;97.20
21682;DHT22;11002;48.256;10.084;2023-04-01T04:08:41;6.60;96.60
21682;DHT22;11002;48.256;10.084;2023-04-01T04:11:08;6.70;96.80
21682;DHT22;11002;48.256;10.084;2023-04-01T04:13:39;6.80;96.60
21682;DHT22;11002;48.256;10.084;2023-04-01T04:16:07;6.70;95.40
21682;DHT22;11002;48.256;10.084;2023-04-01T04:18:38;6.80;94.80
21682;DHT22;11002;48.256;10.084;2023-04-01T04:21:06;6.80;93.70
21682;DHT22;11002;48.256;10.084;2023-04-01T04:23:33;6.70;92.50
21682;DHT22;11002;48.256;10.084;2023-04-01T04:26:04;6.90;92.50
21682;DHT22;11002;48.256;10.084;2023-04-01T04:28:33;6.70;92.40
21682;DHT22;11002;48.256;10.084;2023-04-01T04:31:01;6.80;92.00
21682;DHT22;11002;48.256;10.084;2023-04-01T04:33:32;7.00;91.00
21682;DHT22;11002;48.256;10.084;2023-04-01T04:36:01;6.80;90.50
21682;DHT22;11002;48.256;10.084;2023-04-01T04:38:29;6.80;88.80
21682;DHT22;11002;48.256;10.084;2023-04-01T04:40:56;6.80;88.30
21682;DHT22;11002;48.256;10.084;2023-04-01T04:43:23;6.80;86.80
21682;DHT22;11002;48.256;10.084;2023-04-01T04:45:51;6.70;86.80
21682;DHT22;11002;48.256;10.084;2023-04-01T04:48:18;6.60;87.20
21682;DHT22;11002;48.256;10.084;2023-04-01T04:50:47;6.60;87.20
21682;DHT22;11002;48.256;10.084;2023-04-01T04:53:17;6.60;86.60
21682;DHT22;11002;48.256;10.084;2023-04-01T04:55:45;6.60;86.60
21682;DHT22;11002;48.256;10.084;2023-04-01T04:58:31;6.50;85.80
21682;DHT22;11002;48.256;10.084;2023-04-01T05:01:05;6.60;86.10
21682;DHT22;11002;48.256;10.084;2023-04-01T05:03:33;6.90;86.00
21682;DHT22;11002;48.256;10.084;2023-04-01T05:06:00;6.70;86.20
21682;DHT22;11002;48.256;10.084;2023-04-01T05:08:29;6.70;85.10
21682;DHT22;11002;48.256;10.084;2023-04-01T05:10:57;6.70;84.40
21682;DHT22;11002;48.256;10.084;2023-04-01T05:13:24;6.80;82.90
21682;DHT22;11002;48.256;10.084;2023-04-01T05:15:52;6.70;82.80
21682;DHT22;11002;48.256;10.084;2023-04-01T05:18:19;6.80;82.90
21682;DHT22;11002;48.256;10.084;2023-04-01T05:20:48;6.90;83.00
21682;DHT22;11002;48.256;10.084;2023-04-01T05:23:15;6.80;81.80
21682;DHT22;11002;48.256;10.084;2023-04-01T05:25:45;7.00;82.00
21682;DHT22;11002;48.256;10.084;2023-04-01T05:28:13;6.90;80.70
21682;DHT22;11002;48.256;10.084;2023-04-01T05:30:42;6.90;79.80
21682;DHT22;11002;48.256;10.084;2023-04-01T05:33:20;7.20;80.30
21682;DHT22;11002;48.256;10.084;2023-04-01T05:35:48;7.00;79.90
21682;DHT22;11002;48.256;10.084;2023-04-01T05:38:15;7.20;80.70
21682;DHT22;11002;48.256;10.084;2023-04-01T05:40:44;7.00;81.30
21682;DHT22;11002;48.256;10.084;2023-04-01T05:43:12;7.00;80.50
21682;DHT22;11002;48.256;10.084;2023-04-01T05:45:40;7.00;80.50
21682;DHT22;11002;48.256;10.084;2023-04-01T05:48:13;7.10;80.90
21682;DHT22;11002;48.256;10.084;2023-04-01T05:50:41;7.30;81.60
21682;DHT22;11002;48.256;10.084;2023-04-01T05:53:10;7.10;79.70
21682;DHT22;11002;48.256;10.084;2023-04-01T05:55:41;7.10;79.10
21682;DHT22;11002;48.256;10.084;2023-04-01T05:58:09;7.40;79.00
21682;DHT22;11002;48.256;10.084;2023-04-01T06:00:43;7.00;78.60
21682;DHT22;11002;48.256;10.084;2023-04-01T06:03:12;7.10;76.90
21682;DHT22;11002;48.256;10.084;2023-04-01T06:05:41;7.40;77.70
21682;DHT22;11002;48.256;10.084;2023-04-01T06:08:13;7.30;76.90
21682;DHT22;11002;48.256;10.084;2023-04-01T06:10:51;7.20;76.80
21682;DHT22;11002;48.256;10.084;2023-04-01T06:13:29;7.20;74.10
21682;DHT22;11002;48.256;10.084;2023-04-01T06:16:04;7.30;74.30
21682;DHT22;11002;48.256;10.084;2023-04-01T06:18:53;7.40;72.50
21682;DHT22;11002;48.256;10.084;2023-04-01T06:21:55;7.30;70.30
21682;DHT22;11002;48.256;10.084;2023-04-01T06:24:51;7.50;69.80
21682;DHT22;11002;48.256;10.084;2023-04-01T06:27:39;8.10;66.60
21682;DHT22;11002;48.256;10.084;2023-04-01T06:30:29;8.20;63.20
21682;DHT22;11002;48.256;10.084;2023-04-01T06:33:09;8.40;60.10
21682;DHT22;11002;48.256;10.084;2023-04-01T06:35:55;8.40;59.50
21682;DHT22;11002;48.256;10.084;2023-04-01T06:38:41;8.40;58.70
21682;DHT22;11002;48.256;10.084;2023-04-01T06:41:28;8.20;60.00
21682;DHT22;11002;48.256;10.084;2023-04-01T06:44:14;8.40;60.10
21682;DHT22;11002;48.256;10.084;2023-04-01T06:47:12;8.40;60.00
21682;DHT22;11002;48.256;10.084;2023-04-01T06:50:07;8.20;60.00
21682;DHT22;11002;48.256;10.084;2023-04-01T06:53:05;8.00;61.30
21682;DHT22;11002;48.256;10.084;2023-04-01T06:55:55;8.00;62.90
21682;DHT22;11002;48.256;10.084;2023-04-01T06:58:59;7.90;62.30
21682;DHT22;11002;48.256;10.084;2023-04-01T07:01:34;8.10;63.00
21682;DHT22;11002;48.256;10.084;2023-04-01T07:04:06;7.90;64.10
21682;DHT22;11002;48.256;10.084;2023-04-01T07:06:40;7.90;63.80
21682;DHT22;11002;48.256;10.084;2023-04-01T07:09:12;8.00;64.20
21682;DHT22;11002;48.256;10.084;2023-04-01T07:12:02;8.10;63.80
21682;DHT22;11002;48.256;10.084;2023-04-01T07:14:53;7.90;64.10
21682;DHT22;11002;48.256;10.084;2023-04-01T07:17:24;7.80;64.00
21682;DHT22;11002;48.256;10.084;2023-04-01T07:20:00;7.90;64.10
21682;DHT22;11002;48.256;10.084;2023-04-01T07:22:32;8.20;64.40
21682;DHT22;11002;48.256;10.084;2023-04-01T07:25:26;8.20;63.60
21682;DHT22;11002;48.256;10.084;2023-04-01T07:28:15;8.00;62.70
21682;DHT22;11002;48.256;10.084;2023-04-01T07:31:05;8.30;62.70
21682;DHT22;11002;48.256;10.084;2023-04-01T07:33:37;8.30;63.30
21682;DHT22;11002;48.256;10.084;2023-04-01T07:36:13;8.40;62.40
21682;DHT22;11002;48.256;10.084;2023-04-01T07:38:54;8.40;61.90
21682;DHT22;11002;48.256;10.084;2023-04-01T07:41:51;8.60;59.50
21682;DHT22;11002;48.256;10.084;2023-04-01T07:44:25;8.60;58.10
21682;DHT22;11002;48.256;10.084;2023-04-01T07:47:12;8.70;58.80
21682;DHT22;11002;48.256;10.084;2023-04-01T07:49:50;8.70;59.50
21682;DHT22;11002;48.256;10.084;2023-04-01T07:52:26;8.90;59.00
21682;DHT22;11002;48.256;10.084;2023-04-01T07:55:06;9.00;58.20
21682;DHT22;11002;48.256;10.084;2023-04-01T07:57:40;9.10;57.10
21682;DHT22;11002;48.256;10.084;2023-04-01T08:00:12;9.30;55.60
21682;DHT22;11002;48.256;10.084;2023-04-01T08:02:55;9.40;55.50
21682;DHT22;11002;48.256;10.084;2023-04-01T08:05:29;9.30;53.60
21682;DHT22;11002;48.256;10.084;2023-04-01T08:08:06;9.40;54.90
21682;DHT22;11002;48.256;10.084;2023-04-01T08:10:59;9.40;53.60
21682;DHT22;11002;48.256;10.084;2023-04-01T08:13:57;9.20;53.80
21682;DHT22;11002;48.256;10.084;2023-04-01T08:17:02;9.40;53.90
21682;DHT22;11002;48.256;10.084;2023-04-01T08:19:49;9.30;54.40
21682;DHT22;11002;48.256;10.084;2023-04-01T08:22:23;9.30;54.20
21682;DHT22;11002;48.256;10.084;2023-04-01T08:24:56;9.20;52.50
21682;DHT22;11002;48.256;10.084;2023-04-01T08:27:33;9.30;54.20
21682;DHT22;11002;48.256;10.084;2023-04-01T08:30:06;9.20;53.00
21682;DHT22;11002;48.256;10.084;2023-04-01T08:32:44;9.20;52.50
21682;DHT22;11002;48.256;10.084;2023-04-01T08:35:19;9.00;55.00
21682;DHT22;11002;48.256;10.084;2023-04-01T08:37:50;9.10;54.60
21682;DHT22;11002;48.256;10.084;2023-04-01T08:40:58;9.20;54.30
21682;DHT22;11002;48.256;10.084;2023-04-01T08:44:04;9.40;52.90
21682;DHT22;11002;48.256;10.084;2023-04-01T08:49:56;9.60;52.80
21682;DHT22;11002;48.256;10.084;2023-04-01T08:53:16;9.50;52.70
21682;DHT22;11002;48.256;10.084;2023-04-01T08:55:50;9.50;52.70
21682;DHT22;11002;48.256;10.084;2023-04-01T08:58:37;9.50;52.70
21682;DHT22;11002;48.256;10.084;2023-04-01T09:02:00;9.50;52.70
21682;DHT22;11002;48.256;10.084;2023-04-01T09:05:06;9.40;52.70
21682;DHT22;11002;48.256;10.084;2023-04-01T09:07:43;9.50;53.60
21682;DHT22;11002;48.256;10.084;2023-04-01T09:13:42;9.40;52.70
21682;DHT22;11002;48.256;10.084;2023-04-01T09:16:28;9.40;53.50
21682;DHT22;11002;48.256;10.084;2023-04-01T09:19:21;9.20;53.50
21682;DHT22;11002;48.256;10.084;2023-04-01T09:27:57;9.00;61.20
21682;DHT22;11002;48.256;10.084;2023-04-01T09:33:54;9.00;62.40
21682;DHT22;11002;48.256;10.084;2023-04-01T09:36:47;8.70;62.90
21682;DHT22;11002;48.256;10.084;2023-04-01T09:39:40;8.70;63.80
21682;DHT22;11002;48.256;10.084;2023-04-01T09:45:40;8.70;62.70
21682;DHT22;11002;48.256;10.084;2023-04-01T09:48:19;8.70;62.10
21682;DHT22;11002;48.256;10.084;2023-04-01T09:50:56;8.60;60.20
21682;DHT22;11002;48.256;10.084;2023-04-01T09:53:41;8.70;60.00
21682;DHT22;11002;48.256;10.084;2023-04-01T10:03:40;8.80;59.00
21682;DHT22;11002;48.256;10.084;2023-04-01T10:12:35;8.50;62.60
21682;DHT22;11002;48.256;10.084;2023-04-01T10:15:30;8.50;59.50
21682;DHT22;11002;48.256;10.084;2023-04-01T10:18:32;8.80;60.10
21682;DHT22;11002;48.256;10.084;2023-04-01T10:21:22;8.80;58.30
21682;DHT22;11002;48.256;10.084;2023-04-01T10:49:45;9.10;56.50
21682;DHT22;11002;48.256;10.084;2023-04-01T10:52:51;9.20;55.20
21682;DHT22;11002;48.256;10.084;2023-04-01T10:56:07;9.30;56.50
21682;DHT22;11002;48.256;10.084;2023-04-01T11:03:02;9.40;55.60
21682;DHT22;11002;48.256;10.084;2023-04-01T11:12:36;9.60;55.70
21682;DHT22;11002;48.256;10.084;2023-04-01T11:15:47;9.70;56.70
21682;DHT22;11002;48.256;10.084;2023-04-01T11:24:42;9.40;59.30
21682;DHT22;11002;48.256;10.084;2023-04-01T11:27:59;9.40;59.80
21682;DHT22;11002;48.256;10.084;2023-04-01T11:30:47;9.30;65.40
21682;DHT22;11002;48.256;10.084;2023-04-01T11:33:23;9.60;65.60
21682;DHT22;11002;48.256;10.084;2023-04-01T11:36:02;9.20;65.10
21682;DHT22;11002;48.256;10.084;2023-04-01T11:38:55;9.40;65.10
21682;DHT22;11002;48.256;10.084;2023-04-01T11:41:57;9.00;65.10
21682;DHT22;11002;48.256;10.084;2023-04-01T11:44:56;8.70;68.60
21682;DHT22;11002;48.256;10.084;2023-04-01T11:48:00;8.70;70.10
21682;DHT22;11002;48.256;10.084;2023-04-01T11:50:46;8.60;73.40
21682;DHT22;11002;48.256;10.084;2023-04-01T11:53:32;8.40;73.20
21682;DHT22;11002;48.256;10.084;2023-04-01T11:56:11;8.50;78.00
21682;DHT22;11002;48.256;10.084;2023-04-01T11:58:58;8.40;77.90
21682;DHT22;11002;48.256;10.084;2023-04-01T12:01:51;8.20;77.70
21682;DHT22;11002;48.256;10.084;2023-04-01T12:04:49;8.20;79.40
21682;DHT22;11002;48.256;10.084;2023-04-01T12:07:36;8.20;82.20
21682;DHT22;11002;48.256;10.084;2023-04-01T12:10:17;8.10;81.70
21682;DHT22;11002;48.256;10.084;2023-04-01T12:12:51;8.20;82.90
21682;DHT22;11002;48.256;10.084;2023-04-01T12:15:43;8.20;80.50
21682;DHT22;11002;48.256;10.084;2023-04-01T12:18:27;8.50;81.20
21682;DHT22;11002;48.256;10.084;2023-04-01T12:21:17;8.60;82.60
21682;DHT22;11002;48.256;10.084;2023-04-01T12:27:05;8.60;81.30
21682;DHT22;11002;48.256;10.084;2023-04-01T12:32:32;8.70;78.20
21682;DHT22;11002;48.256;10.084;2023-04-01T12:35:25;9.00;76.00
21682;DHT22;11002;48.256;10.084;2023-04-01T12:38:04;9.30;74.70
21682;DHT22;11002;48.256;10.084;2023-04-01T12:40:55;9.50;72.30
21682;DHT22;11002;48.256;10.084;2023-04-01T12:43:52;9.50;69.20
21682;DHT22;11002;48.256;10.084;2023-04-01T12:46:23;9.60;70.70
21682;DHT22;11002;48.256;10.084;2023-04-01T12:49:21;9.70;70.50
21682;DHT22;11002;48.256;10.084;2023-04-01T12:52:11;9.60;65.60
21682;DHT22;11002;48.256;10.084;2023-04-01T12:54:52;9.60;65.60
21682;DHT22;11002;48.256;10.084;2023-04-01T12:57:47;9.30;66.80
21682;DHT22;11002;48.256;10.084;2023-04-01T13:00:35;9.50;66.20
21682;DHT22;11002;48.256;10.084;2023-04-01T13:03:22;9.30;66.00
21682;DHT22;11002;48.256;10.084;2023-04-01T13:06:20;9.40;69.40
21682;DHT22;11002;48.256;10.084;2023-04-01T13:08:58;9.20;69.10
21682;DHT22;11002;48.256;10.084;2023-04-01T13:11:39;9.20;66.10
21682;DHT22;11002;48.256;10.084;2023-04-01T13:14:28;9.20;68.70
21682;DHT22;11002;48.256;10.084;2023-04-01T13:17:08;9.00;70.60
21682;DHT22;11002;48.256;10.084;2023-04-01T13:19:42;9.00;71.40
21682;DHT22;11002;48.256;10.084;2023-04-01T13:22:14;9.10;70.40
21682;DHT22;11002;48.256;10.084;2023-04-01T13:24:49;9.00;67.70
21682;DHT22;11002;48.256;10.084;2023-04-01T13:27:21;9.10;68.30
21682;DHT22;11002;48.256;10.084;2023-04-01T13:30:01;9.00;65.10
21682;DHT22;11002;48.256;10.084;2023-04-01T13:32:35;9.30;65.80
21682;DHT22;11002;48.256;10.084;2023-04-01T13:35:15;9.10;65.20
21682;DHT22;11002;48.256;10.084;2023-04-01T13:37:54;9.20;65.30
21682;DHT22;11002;48.256;10.084;2023-04-01T13:40:34;9.30;67.10
21682;DHT22;11002;48.256;10.084;2023-04-01T13:43:11;9.10;66.60
21682;DHT22;11002;48.256;10.084;2023-04-01T13:45:56;9.40;65.50
21682;DHT22;11002;48.256;10.084;2023-04-01T13:51:38;9.40;63.10
21682;DHT22;11002;48.256;10.084;2023-04-01T14:00:26;9.30;65.40
21682;DHT22;11002;48.256;10.084;2023-04-01T14:03:21;9.60;65.70
21682;DHT22;11002;48.256;10.084;2023-04-01T14:06:05;9.60;65.60
21682;DHT22;11002;48.256;10.084;2023-04-01T14:08:48;9.60;64.40
21682;DHT22;11002;48.256;10.084;2023-04-01T14:11:27;9.70;63.70
21682;DHT22;11002;48.256;10.084;2023-04-01T14:14:06;9.40;65.50
21682;DHT22;11002;48.256;10.084;2023-04-01T14:19:42;9.50;64.00
21682;DHT22;11002;48.256;10.084;2023-04-01T14:22:21;9.50;62.30
21682;DHT22;11002;48.256;10.084;2023-04-01T14:25:10;9.80;61.70
21682;DHT22;11002;48.256;10.084;2023-04-01T14:27:54;9.60;61.50
21682;DHT22;11002;48.256;10.084;2023-04-01T14:30:50;9.70;59.00
21682;DHT22;11002;48.256;10.084;2023-04-01T14:33:31;9.90;57.20
21682;DHT22;11002;48.256;10.084;2023-04-01T14:36:24;9.80;59.10
21682;DHT22;11002;48.256;10.084;2023-04-01T14:39:00;9.70;59.00
21682;DHT22;11002;48.256;10.084;2023-04-01T14:41:42;9.60;57.20
21682;DHT22;11002;48.256;10.084;2023-04-01T14:44:23;9.80;57.10
21682;DHT22;11002;48.256;10.084;2023-04-01T14:47:22;9.80;57.20
21682;DHT22;11002;48.256;10.084;2023-04-01T14:49:53;9.70;56.20
21682;DHT22;11002;48.256;10.084;2023-04-01T14:52:31;9.70;56.00
21682;DHT22;11002;48.256;10.084;2023-04-01T14:55:00;9.80;56.70
21682;DHT22;11002;48.256;10.084;2023-04-01T14:57:31;9.80;57.50
21682;DHT22;11002;48.256;10.084;2023-04-01T15:00:09;9.90;57.00
21682;DHT22;11002;48.256;10.084;2023-04-01T15:02:45;9.90;56.30
21682;DHT22;11002;48.256;10.084;2023-04-01T15:05:27;10.10;54.60
21682;DHT22;11002;48.256;10.084;2023-04-01T15:08:05;10.30;52.50
21682;DHT22;11002;48.256;10.084;2023-04-01T15:14:08;10.00;52.30
21682;DHT22;11002;48.256;10.084;2023-04-01T15:16:50;10.40;54.20
21682;DHT22;11002;48.256;10.084;2023-04-01T15:19:31;10.30;54.70
21682;DHT22;11002;48.256;10.084;2023-04-01T15:22:23;10.20;54.20
21682;DHT22;11002;48.256;10.084;2023-04-01T15:25:14;10.20;54.30
21682;DHT22;11002;48.256;10.084;2023-04-01T15:27:48;10.10;53.40
21682;DHT22;11002;48.256;10.084;2023-04-01T15:30:29;9.90;54.40
21682;DHT22;11002;48.256;10.084;2023-04-01T15:33:13;10.00;54.00
21682;DHT22;11002;48.256;10.084;2023-04-01T15:35:48;10.00;56.30
21682;DHT22;11002;48.256;10.084;2023-04-01T15:38:24;10.00;54.20
21682;DHT22;11002;48.256;10.084;2023-04-01T15:41:00;10.00;54.10
21682;DHT22;11002;48.256;10.084;2023-04-01T15:43:40;9.90;55.10
21682;DHT22;11002;48.256;10.084;2023-04-01T15:46:39;9.80;55.00
21682;DHT22;11002;48.256;10.084;2023-04-01T15:49:20;9.60;54.80
21682;DHT22;11002;48.256;10.084;2023-04-01T15:52:07;9.70;55.20
21682;DHT22;11002;48.256;10.084;2023-04-01T15:55:16;9.70;54.40
21682;DHT22;11002;48.256;10.084;2023-04-01T15:57:59;9.70;54.00
21682;DHT22;11002;48.256;10.084;2023-04-01T16:00:31;9.60;55.30
21682;DHT22;11002;48.256;10.084;2023-04-01T16:03:14;9.50;55.80
21682;DHT22;11002;48.256;10.084;2023-04-01T16:05:54;9.60;56.50
21682;DHT22;11002;48.256;10.084;2023-04-01T16:08:56;9.80;55.70
21682;DHT22;11002;48.256;10.084;2023-04-01T16:11:33;9.40;54.50
21682;DHT22;11002;48.256;10.084;2023-04-01T16:14:13;9.50;55.50
21682;DHT22;11002;48.256;10.084;2023-04-01T16:16:58;9.70;55.20
21682;DHT22;11002;48.256;10.084;2023-04-01T16:19:51;9.40;55.20
21682;DHT22;11002;48.256;10.084;2023-04-01T16:22:23;9.40;54.90
21682;DHT22;11002;48.256;10.084;2023-04-01T16:24:56;9.40;55.10
21682;DHT22;11002;48.256;10.084;2023-04-01T16:27:32;9.50;55.30
21682;DHT22;11002;48.256;10.084;2023-04-01T16:30:26;9.20;55.30
21682;DHT22;11002;48.256;10.084;2023-04-01T16:33:02;9.30;56.90
21682;DHT22;11002;48.256;10.084;2023-04-01T16:35:38;9.30;58.40
21682;DHT22;11002;48.256;10.084;2023-04-01T16:38:13;9.20;58.70
21682;DHT22;11002;48.256;10.084;2023-04-01T16:40:47;9.10;61.80
21682;DHT22;11002;48.256;10.084;2023-04-01T16:43:23;9.00;60.90
21682;DHT22;11002;48.256;10.084;2023-04-01T16:46:13;9.00;61.50
21682;DHT22;11002;48.256;10.084;2023-04-01T16:48:52;9.20;62.60
21682;DHT22;11002;48.256;10.084;2023-04-01T16:51:24;9.00;64.20
21682;DHT22;11002;48.256;10.084;2023-04-01T16:54:04;8.80;64.90
21682;DHT22;11002;48.256;10.084;2023-04-01T16:56:39;8.90;65.00
21682;DHT22;11002;48.256;10.084;2023-04-01T16:59:17;9.00;65.10
21682;DHT22;11002;48.256;10.084;2023-04-01T17:01:52;8.90;65.00
21682;DHT22;11002;48.256;10.084;2023-04-01T17:04:29;8.90;65.00
21682;DHT22;11002;48.256;10.084;2023-04-01T17:07:05;8.70;64.80
21682;DHT22;11002;48.256;10.084;2023-04-01T17:09:55;8.90;65.00
21682;DHT22;11002;48.256;10.084;2023-04-01T17:12:33;8.70;64.20
21682;DHT22;11002;48.256;10.084;2023-04-01T17:15:12;8.80;64.40
21682;DHT22;11002;48.256;10.084;2023-04-01T17:17:49;9.00;64.40
21682;DHT22;11002;48.256;10.084;2023-04-01T17:20:42;8.70;64.40
21682;DHT22;11002;48.256;10.084;2023-04-01T17:23:20;8.80;62.50
21682;DHT22;11002;48.256;10.084;2023-04-01T17:28:47;8.80;63.40
21682;DHT22;11002;48.256;10.084;2023-04-01T17:31:37;9.00;63.70
21682;DHT22;11002;48.256;10.084;2023-04-01T17:34:32;8.80;63.30
21682;DHT22;11002;48.256;10.084;2023-04-01T17:37:15;8.90;62.50
21682;DHT22;11002;48.256;10.084;2023-04-01T17:39:53;8.80;62.70
21682;DHT22;11002;48.256;10.084;2023-04-01T17:42:36;8.90;63.40
21682;DHT22;11002;48.256;10.084;2023-04-01T17:45:11;8.80;63.40
21682;DHT22;11002;48.256;10.084;2023-04-01T17:48:03;8.80;62.40
21682;DHT22;11002;48.256;10.084;2023-04-01T17:50:50;8.90;62.20
21682;DHT22;11002;48.256;10.084;2023-04-01T17:53:27;8.80;62.30
21682;DHT22;11002;48.256;10.084;2023-04-01T17:56:17;8.80;61.60
21682;DHT22;11002;48.256;10.084;2023-04-01T17:58:49;8.70;62.00
21682;DHT22;11002;48.256;10.084;2023-04-01T18:01:23;8.60;61.90
21682;DHT22;11002;48.256;10.084;2023-04-01T18:04:07;8.60;60.90
21682;DHT22;11002;48.256;10.084;2023-04-01T18:06:46;8.80;61.60
21682;DHT22;11002;48.256;10.084;2023-04-01T18:09:25;8.70;62.00
21682;DHT22;11002;48.256;10.084;2023-04-01T18:11:59;8.70;61.30
21682;DHT22;11002;48.256;10.084;2023-04-01T18:14:57;8.60;61.70
21682;DHT22;11002;48.256;10.084;2023-04-01T18:17:27;8.50;61.40
21682;DHT22;11002;48.256;10.084;2023-04-01T18:20:16;8.70;62.40
21682;DHT22;11002;48.256;10.084;2023-04-01T18:22:53;8.80;62.60